createdAt,value
2023-02-12T00:01:08.998Z,24.00
2023-02-12T00:03:36.676Z,22.85
2023-02-12T00:06:05.817Z,28.35
2023-02-12T00:08:35.045Z,26.27
2023-02-12T00:11:16.992Z,26.58
2023-02-12T00:13:43.731Z,25.42
2023-02-12T00:16:13.669Z,26.58
2023-02-12T00:18:40.568Z,25.50
2023-02-12T00:21:10.202Z,23.50
2023-02-12T00:23:41.124Z,29.60
2023-02-12T00:26:10.264Z,32.00
2023-02-12T00:28:37.605Z,27.98
2023-02-12T00:31:09.232Z,27.45
2023-02-12T00:33:36.227Z,28.30
2023-02-12T00:36:03.753Z,27.00
2023-02-12T00:38:30.548Z,31.85
2023-02-12T00:40:57.613Z,31.65
2023-02-12T00:43:24.560Z,26.90
2023-02-12T00:45:54.089Z,29.38
2023-02-12T00:48:21.018Z,29.50
2023-02-12T00:50:48.660Z,30.77
2023-02-12T00:53:15.475Z,32.80
2023-02-12T00:55:42.330Z,30.88
2023-02-12T00:58:11.870Z,34.13
2023-02-12T01:00:39.047Z,35.40
2023-02-12T01:03:06.169Z,32.38
2023-02-12T01:05:33.220Z,33.47
2023-02-12T01:07:59.925Z,33.88
2023-02-12T01:10:27.219Z,36.28
2023-02-12T01:12:54.431Z,31.83
2023-02-12T01:15:21.692Z,30.48
2023-02-12T01:17:48.394Z,32.33
2023-02-12T01:20:19.920Z,27.83
2023-02-12T01:22:48.932Z,33.63
2023-02-12T01:25:16.836Z,33.72
2023-02-12T01:27:47.210Z,30.88
2023-02-12T01:30:16.712Z,31.73
2023-02-12T01:32:44.101Z,29.10
2023-02-12T01:35:10.940Z,26.95
2023-02-12T01:37:38.294Z,33.15
2023-02-12T01:40:10.080Z,27.27
2023-02-12T01:42:40.373Z,38.65
2023-02-12T01:45:42.178Z,26.75
2023-02-12T01:48:08.925Z,32.20
2023-02-12T01:50:36.030Z,29.90
2023-02-12T01:53:02.995Z,29.73
2023-02-12T01:55:31.860Z,27.77
2023-02-12T01:57:58.688Z,31.38
2023-02-12T02:00:26.475Z,25.05
2023-02-12T02:02:58.237Z,29.67
2023-02-12T02:05:38.956Z,28.25
2023-02-12T02:08:05.978Z,30.63
2023-02-12T02:10:32.647Z,28.92
2023-02-12T02:13:18.102Z,30.60
2023-02-12T02:15:52.906Z,29.73
2023-02-12T02:18:28.923Z,27.73
2023-02-12T02:21:22.937Z,27.92
2023-02-12T02:24:09.768Z,32.50
2023-02-12T02:27:07.008Z,30.52
2023-02-12T02:30:07.226Z,28.92
2023-02-12T02:33:04.732Z,28.30
2023-02-12T02:35:43.889Z,25.60
2023-02-12T02:38:22.419Z,33.22
2023-02-12T02:41:09.358Z,28.80
2023-02-12T02:43:45.846Z,28.05
2023-02-12T02:46:22.934Z,29.10
2023-02-12T02:49:00.962Z,25.73
2023-02-12T02:51:39.578Z,28.25
2023-02-12T02:54:13.611Z,26.35
2023-02-12T02:56:46.848Z,24.10
2023-02-12T02:59:24.343Z,27.35
2023-02-12T03:02:03.167Z,28.30
2023-02-12T03:04:48.432Z,27.52
2023-02-12T03:07:18.680Z,26.40
2023-02-12T03:09:52.575Z,24.63
2023-02-12T03:15:03.154Z,25.52
2023-02-12T03:17:34.090Z,28.23
2023-02-12T03:20:09.143Z,27.83
2023-02-12T03:22:41.780Z,28.38
2023-02-12T03:25:18.028Z,27.88
2023-02-12T03:28:09.593Z,26.83
2023-02-12T03:30:45.572Z,30.55
2023-02-12T03:33:31.545Z,29.35
2023-02-12T03:36:03.384Z,30.17
2023-02-12T03:38:41.626Z,31.60
2023-02-12T03:41:36.077Z,26.88
2023-02-12T03:49:21.800Z,28.35
2023-02-12T03:51:48.598Z,28.65
2023-02-12T03:54:18.630Z,24.70
2023-02-12T03:56:52.077Z,28.42
2023-02-12T03:59:20.280Z,26.17
2023-02-12T04:01:50.685Z,27.52
2023-02-12T04:04:21.161Z,30.42
2023-02-12T04:06:52.532Z,30.92
2023-02-12T04:09:20.579Z,28.20
2023-02-12T04:11:50.211Z,29.02
2023-02-12T04:14:42.658Z,33.15
2023-02-12T04:17:22.287Z,31.70
2023-02-12T04:20:11.216Z,26.92
2023-02-12T04:22:55.326Z,25.42
2023-02-12T04:28:33.336Z,29.02
2023-02-12T04:31:04.967Z,29.30
2023-02-12T04:33:47.210Z,26.25
2023-02-12T04:36:19.482Z,27.65
2023-02-12T04:39:03.628Z,31.85
2023-02-12T04:43:57.692Z,24.35
2023-02-12T04:46:26.552Z,31.73
2023-02-12T04:48:59.105Z,24.58
2023-02-12T04:51:25.842Z,32.08
2023-02-12T04:53:52.483Z,29.88
2023-02-12T04:56:21.295Z,30.17
2023-02-12T04:58:47.953Z,32.08
2023-02-12T05:01:17.143Z,28.00
2023-02-12T05:03:46.064Z,28.20
2023-02-12T05:06:12.732Z,27.75
2023-02-12T05:08:39.442Z,29.15
2023-02-12T05:11:07.866Z,32.40
2023-02-12T05:13:37.483Z,31.10
2023-02-12T05:16:05.918Z,34.58
2023-02-12T05:18:34.328Z,30.80
2023-02-12T05:21:04.009Z,29.35
2023-02-12T05:23:32.937Z,26.60
2023-02-12T05:26:01.083Z,31.85
2023-02-12T05:28:28.739Z,27.67
2023-02-12T05:30:55.628Z,30.88
2023-02-12T05:33:22.304Z,34.83
2023-02-12T05:35:49.859Z,29.60
2023-02-12T05:38:21.280Z,28.63
2023-02-12T05:40:48.014Z,30.23
2023-02-12T05:43:17.301Z,31.88
2023-02-12T05:45:45.015Z,29.95
2023-02-12T05:48:14.470Z,30.05
2023-02-12T05:50:43.954Z,32.47
2023-02-12T05:53:13.087Z,32.72
2023-02-12T05:55:39.745Z,32.85
2023-02-12T05:58:08.731Z,39.72
2023-02-12T06:00:35.465Z,34.83
2023-02-12T06:03:02.354Z,34.30
2023-02-12T06:05:29.051Z,28.80
2023-02-12T06:07:55.719Z,35.42
2023-02-12T06:10:24.521Z,34.13
2023-02-12T06:12:54.635Z,33.28
2023-02-12T06:15:21.364Z,33.40
2023-02-12T06:17:47.996Z,35.58
2023-02-12T06:20:14.734Z,36.10
2023-02-12T06:22:41.331Z,35.50
2023-02-12T06:25:08.198Z,33.75
2023-02-12T06:27:35.037Z,39.05
2023-02-12T06:30:01.721Z,32.75
2023-02-12T06:32:30.566Z,37.35
2023-02-12T06:34:57.323Z,38.97
2023-02-12T06:37:26.618Z,38.70
2023-02-12T06:39:55.484Z,34.78
2023-02-12T06:42:22.090Z,35.72
2023-02-12T06:44:50.747Z,40.65
2023-02-12T06:47:18.638Z,38.55
2023-02-12T06:49:47.735Z,38.63
2023-02-12T06:52:14.503Z,36.72
2023-02-12T06:54:41.397Z,38.05
2023-02-12T06:57:08.191Z,36.58
2023-02-12T06:59:34.816Z,37.42
2023-02-12T07:02:04.263Z,41.47
2023-02-12T07:04:31.002Z,39.97
2023-02-12T07:06:57.732Z,40.33
2023-02-12T07:09:24.374Z,42.67
2023-02-12T07:11:53.173Z,39.97
2023-02-12T07:14:19.834Z,45.88
2023-02-12T07:16:46.544Z,38.78
2023-02-12T07:19:14.033Z,44.30
2023-02-12T07:21:40.860Z,45.08
2023-02-12T07:24:11.816Z,47.85
2023-02-12T07:26:41.911Z,38.10
2023-02-12T07:29:08.631Z,46.13
2023-02-12T07:31:35.403Z,38.05
2023-02-12T07:34:02.139Z,42.00
2023-02-12T07:36:34.051Z,38.70
2023-02-12T07:39:03.341Z,40.75
2023-02-12T07:41:36.421Z,43.88
2023-02-12T07:44:07.470Z,42.70
2023-02-12T07:46:40.287Z,41.47
2023-02-12T07:49:14.365Z,43.85
2023-02-12T07:51:41.591Z,47.35
2023-02-12T07:54:08.773Z,41.28
2023-02-12T07:56:37.546Z,45.38
2023-02-12T07:59:07.327Z,51.75
2023-02-12T08:01:39.012Z,46.85
2023-02-12T08:04:09.311Z,46.00
2023-02-12T08:06:38.745Z,44.85
2023-02-12T08:09:07.449Z,45.67
2023-02-12T08:11:34.366Z,50.78
2023-02-12T08:14:03.734Z,46.28
2023-02-12T08:16:33.267Z,46.78
2023-02-12T08:19:14.302Z,56.25
2023-02-12T08:21:45.460Z,52.17
2023-02-12T08:24:12.179Z,51.03
2023-02-12T08:26:41.795Z,47.50
2023-02-12T08:29:14.153Z,55.97
2023-02-12T08:31:43.463Z,53.70
2023-02-12T08:34:27.757Z,54.15
2023-02-12T08:36:56.169Z,47.97
2023-02-12T08:39:25.118Z,51.70
2023-02-12T08:41:54.876Z,59.05
2023-02-12T08:44:21.841Z,53.72
2023-02-12T08:46:51.385Z,47.35
2023-02-12T08:49:24.530Z,49.58
2023-02-12T08:51:54.387Z,58.45
2023-02-12T08:54:27.188Z,57.42
2023-02-12T08:56:58.814Z,52.20
2023-02-12T08:59:28.364Z,50.13
2023-02-12T09:01:55.231Z,53.05
2023-02-12T09:04:25.252Z,54.67
2023-02-12T09:06:53.158Z,54.25
2023-02-12T09:09:21.019Z,53.90
2023-02-12T09:11:48.277Z,57.25
2023-02-12T09:14:17.522Z,51.92
2023-02-12T09:16:44.717Z,52.55
2023-02-12T09:19:13.382Z,55.38
2023-02-12T09:21:40.339Z,50.85
2023-02-12T09:24:07.452Z,51.17
2023-02-12T09:26:36.687Z,52.63
2023-02-12T09:29:04.509Z,53.55
2023-02-12T09:31:33.193Z,54.30
2023-02-12T09:34:03.863Z,59.10
2023-02-12T09:36:36.016Z,55.40
2023-02-12T09:39:05.467Z,53.47
2023-02-12T09:41:44.355Z,54.47
2023-02-12T09:44:25.292Z,50.00
2023-02-12T09:47:05.874Z,53.92
2023-02-12T09:49:57.309Z,53.15
2023-02-12T09:52:28.930Z,53.75
2023-02-12T09:54:59.030Z,53.30
2023-02-12T09:57:31.265Z,53.78
2023-02-12T10:00:08.535Z,49.40
2023-02-12T10:02:40.014Z,51.65
2023-02-12T10:05:19.820Z,54.42
2023-02-12T10:08:05.324Z,54.80
2023-02-12T10:10:54.089Z,54.25
2023-02-12T10:13:47.197Z,54.47
2023-02-12T10:16:28.776Z,56.05
2023-02-12T10:19:22.356Z,49.63
2023-02-12T10:22:18.502Z,51.20
2023-02-12T10:25:14.817Z,48.33
2023-02-12T10:27:49.687Z,50.05
2023-02-12T10:30:22.812Z,55.17
2023-02-12T10:32:54.697Z,55.20
2023-02-12T10:35:25.682Z,52.03
2023-02-12T10:37:58.723Z,53.10
2023-02-12T10:40:33.905Z,51.30
2023-02-12T10:43:02.438Z,51.28
2023-02-12T10:45:39.872Z,52.35
2023-02-12T10:48:11.088Z,50.80
2023-02-12T10:51:08.168Z,53.42
2023-02-12T10:53:40.815Z,53.55
2023-02-12T10:56:17.299Z,46.83
2023-02-12T10:58:50.107Z,48.95
2023-02-12T11:01:38.623Z,49.13
2023-02-12T11:04:29.763Z,50.30
2023-02-12T11:06:59.362Z,53.92
2023-02-12T11:09:36.192Z,50.63
2023-02-12T11:12:15.341Z,49.55
2023-02-12T11:14:49.659Z,51.38
2023-02-12T11:17:27.273Z,51.78
2023-02-12T11:20:15.936Z,43.63
2023-02-12T11:22:58.600Z,47.80
2023-02-12T11:25:28.794Z,42.72
2023-02-12T11:28:06.637Z,42.80
2023-02-12T11:30:36.666Z,44.10
2023-02-12T11:33:22.119Z,44.47
2023-02-12T11:35:56.611Z,48.88
2023-02-12T11:38:26.796Z,45.40
2023-02-12T11:41:00.758Z,47.90
2023-02-12T11:43:31.706Z,39.35
2023-02-12T11:46:00.499Z,42.42
2023-02-12T11:48:39.906Z,44.08
2023-02-12T11:51:09.697Z,40.92
2023-02-12T11:53:45.600Z,44.92
2023-02-12T11:56:14.052Z,42.10
2023-02-12T11:58:41.619Z,44.13
2023-02-12T12:01:23.603Z,42.55
2023-02-12T12:04:21.594Z,39.72
2023-02-12T12:07:07.910Z,43.10
2023-02-12T12:09:42.670Z,41.53
2023-02-12T12:12:13.879Z,42.75
2023-02-12T12:15:07.246Z,41.30
2023-02-12T12:18:22.356Z,42.70
2023-02-12T12:23:42.391Z,38.55
2023-02-12T12:26:26.025Z,38.35
2023-02-12T12:29:18.456Z,38.58
2023-02-12T12:31:50.578Z,39.13
2023-02-12T12:34:23.770Z,42.38
2023-02-12T12:37:15.039Z,37.40
2023-02-12T12:39:51.402Z,31.00
2023-02-12T12:42:40.251Z,35.58
2023-02-12T12:45:33.012Z,34.03
2023-02-12T12:48:30.278Z,34.67
2023-02-12T12:51:19.682Z,27.00
2023-02-12T12:54:08.094Z,23.02
2023-02-12T12:56:40.969Z,23.50
2023-02-12T12:59:26.221Z,22.25
2023-02-12T13:02:01.742Z,28.02
2023-02-12T13:04:52.831Z,23.20
2023-02-12T13:07:42.732Z,21.02
2023-02-12T13:10:45.110Z,19.92
2023-02-12T13:13:30.089Z,18.40
2023-02-12T13:16:29.693Z,18.13
2023-02-12T13:19:01.624Z,16.25
2023-02-12T13:21:37.352Z,13.52
2023-02-12T13:24:18.669Z,14.90
2023-02-12T13:27:02.454Z,17.25
2023-02-12T13:29:31.404Z,14.32
2023-02-12T13:32:28.435Z,12.05
2023-02-12T13:34:56.928Z,12.23
2023-02-12T13:37:40.590Z,19.45
2023-02-12T13:40:14.965Z,11.32
2023-02-12T13:43:18.680Z,11.50
2023-02-12T13:46:03.549Z,10.60
2023-02-12T13:49:03.730Z,8.38
2023-02-12T13:51:51.040Z,11.30
2023-02-12T13:54:23.637Z,11.95
2023-02-12T13:56:55.883Z,9.88
2023-02-12T13:59:32.010Z,8.38
2023-02-12T14:02:22.628Z,8.57
2023-02-12T14:04:56.910Z,8.65
2023-02-12T14:07:24.576Z,11.48
2023-02-12T14:09:51.175Z,8.18
2023-02-12T14:12:26.788Z,8.65
2023-02-12T14:15:21.716Z,10.93
2023-02-12T14:18:06.310Z,7.65
2023-02-12T14:20:38.007Z,10.10
2023-02-12T14:23:27.508Z,7.70
2023-02-12T14:26:23.362Z,8.18
2023-02-12T14:29:04.575Z,7.15
2023-02-12T14:31:34.922Z,7.30
2023-02-12T14:34:30.773Z,9.77
2023-02-12T14:37:17.817Z,7.30
2023-02-12T14:39:45.597Z,6.65
2023-02-12T14:42:15.147Z,6.70
2023-02-12T14:44:47.821Z,7.18
2023-02-12T14:47:36.537Z,7.07
2023-02-12T14:50:14.503Z,7.60
2023-02-12T14:52:46.737Z,7.50
2023-02-12T14:55:27.040Z,6.85
2023-02-12T14:58:05.262Z,6.57
2023-02-12T15:00:39.208Z,9.52
2023-02-12T15:03:19.816Z,6.90
2023-02-12T15:06:02.550Z,7.35
2023-02-12T15:08:44.717Z,7.35
2023-02-12T15:11:33.569Z,6.80
2023-02-12T15:14:27.038Z,8.30
2023-02-12T15:17:10.077Z,7.72
2023-02-12T15:19:48.270Z,8.17
2023-02-12T15:22:21.459Z,8.88
2023-02-12T15:24:50.881Z,9.10
2023-02-12T15:27:21.800Z,8.15
2023-02-12T15:29:53.092Z,8.30
2023-02-12T15:32:24.604Z,10.70
2023-02-12T15:34:54.690Z,9.10
2023-02-12T15:37:26.288Z,9.38
2023-02-12T15:39:57.344Z,9.88
2023-02-12T15:42:39.147Z,9.48
2023-02-12T15:45:14.928Z,10.52
2023-02-12T15:47:45.715Z,9.30
2023-02-12T15:50:17.801Z,10.30
2023-02-12T15:52:46.821Z,8.05
2023-02-12T15:55:25.762Z,8.38
2023-02-12T15:57:54.955Z,10.48
2023-02-12T16:00:48.769Z,10.77
2023-02-12T16:03:39.370Z,14.90
2023-02-12T16:06:13.641Z,11.63
2023-02-12T16:08:42.625Z,15.32
2023-02-12T16:11:14.034Z,8.60
2023-02-12T16:13:56.313Z,9.50
2023-02-12T16:16:39.286Z,11.35
2023-02-12T16:19:19.741Z,9.75
2023-02-12T16:22:09.692Z,11.48
2023-02-12T16:24:44.272Z,16.88
2023-02-12T16:27:23.066Z,14.13
2023-02-12T16:29:52.960Z,14.80
2023-02-12T16:32:47.791Z,13.55
2023-02-12T16:35:14.394Z,14.77
2023-02-12T16:37:47.858Z,12.05
2023-02-12T16:40:15.401Z,17.35
2023-02-12T16:42:51.162Z,13.88
2023-02-12T16:45:26.867Z,21.80
2023-02-12T16:48:26.291Z,16.48
2023-02-12T16:50:57.790Z,13.85
2023-02-12T16:53:26.738Z,10.95
2023-02-12T16:55:53.749Z,13.45
2023-02-12T16:58:20.494Z,12.85
2023-02-12T17:00:47.986Z,13.60
2023-02-12T17:03:16.915Z,17.75
2023-02-12T17:05:45.220Z,11.05
2023-02-12T17:08:17.299Z,13.57
2023-02-12T17:10:48.224Z,12.15
2023-02-12T17:13:19.009Z,14.27
2023-02-12T17:15:49.456Z,12.55
2023-02-12T17:18:18.439Z,12.55
2023-02-12T17:20:49.174Z,14.35
2023-02-12T17:23:18.295Z,16.73
2023-02-12T17:25:44.935Z,14.20
2023-02-12T17:28:16.442Z,19.48
2023-02-12T17:30:43.319Z,13.85
2023-02-12T17:33:12.842Z,20.58
2023-02-12T17:35:40.180Z,15.10
2023-02-12T17:38:08.129Z,20.45
2023-02-12T17:40:36.708Z,16.15
2023-02-12T17:43:07.970Z,14.88
2023-02-12T17:45:34.675Z,17.98
2023-02-12T17:48:04.107Z,18.75
2023-02-12T17:50:30.844Z,18.13
2023-02-12T17:52:59.727Z,16.73
2023-02-12T17:55:26.400Z,18.60
2023-02-12T17:57:55.335Z,19.77
2023-02-12T18:00:24.810Z,19.70
2023-02-12T18:02:52.205Z,24.00
2023-02-12T18:05:21.144Z,19.80
2023-02-12T18:07:50.484Z,19.33
2023-02-12T18:10:17.321Z,22.75
2023-02-12T18:12:46.231Z,24.65
2023-02-12T18:15:13.664Z,24.80
2023-02-12T18:17:44.640Z,23.65
2023-02-12T18:20:12.151Z,29.38
2023-02-12T18:22:38.878Z,28.05
2023-02-12T18:25:06.277Z,29.23
2023-02-12T18:27:35.193Z,29.83
2023-02-12T18:30:02.067Z,34.15
2023-02-12T18:32:28.736Z,38.20
2023-02-12T18:34:58.241Z,36.40
2023-02-12T18:37:24.879Z,34.13
2023-02-12T18:39:51.579Z,36.85
2023-02-12T18:42:18.422Z,42.50
2023-02-12T18:44:47.683Z,41.50
2023-02-12T18:47:14.426Z,39.53
2023-02-12T18:49:41.189Z,40.63
2023-02-12T18:52:08.114Z,44.42
2023-02-12T18:54:35.143Z,41.65
2023-02-12T18:57:01.901Z,44.60
2023-02-12T18:59:28.665Z,46.30
2023-02-12T19:01:56.108Z,43.20
2023-02-12T19:04:23.948Z,42.92
2023-02-12T19:06:53.639Z,45.40
2023-02-12T19:09:24.118Z,42.42
2023-02-12T19:11:52.999Z,50.88
2023-02-12T19:14:21.245Z,45.95
2023-02-12T19:16:50.710Z,50.55
2023-02-12T19:19:18.365Z,49.22
2023-02-12T19:21:45.367Z,47.38
2023-02-12T19:24:14.094Z,47.63
2023-02-12T19:26:44.388Z,47.38
2023-02-12T19:29:13.640Z,45.40
2023-02-12T19:31:47.627Z,49.55
2023-02-12T19:34:23.152Z,50.80
2023-02-12T19:36:50.344Z,45.33
2023-02-12T19:39:21.138Z,49.88
2023-02-12T19:41:48.641Z,49.67
2023-02-12T19:44:23.756Z,55.70
2023-02-12T19:46:53.250Z,51.60
2023-02-12T19:49:25.013Z,54.15
2023-02-12T19:51:52.433Z,51.83
2023-02-12T19:54:23.478Z,52.05
2023-02-12T19:56:51.285Z,51.30
2023-02-12T19:59:20.721Z,46.78
2023-02-12T20:01:50.804Z,48.15
2023-02-12T20:04:20.539Z,51.28
2023-02-12T20:06:49.090Z,49.60
2023-02-12T20:09:15.931Z,53.15
2023-02-12T20:11:43.118Z,48.78
2023-02-12T20:14:11.858Z,51.90
2023-02-12T20:16:41.640Z,56.25
2023-02-12T20:19:18.524Z,50.83
2023-02-12T20:21:45.986Z,51.58
2023-02-12T20:24:12.963Z,49.95
2023-02-12T20:26:39.849Z,47.55
2023-02-12T20:29:06.815Z,45.20
2023-02-12T20:31:37.752Z,47.45
2023-02-12T20:34:12.069Z,46.97
2023-02-12T20:36:40.385Z,45.50
2023-02-12T20:39:10.168Z,49.28
2023-02-12T20:41:37.414Z,50.22
2023-02-12T20:44:06.510Z,48.85
2023-02-12T20:46:36.110Z,47.13
2023-02-12T20:49:03.060Z,48.15
2023-02-12T20:51:32.267Z,47.42
2023-02-12T20:54:01.246Z,47.63
2023-02-12T20:56:32.775Z,45.63
2023-02-12T20:59:03.283Z,45.92
2023-02-12T21:01:38.415Z,49.88
2023-02-12T21:04:14.490Z,51.33
2023-02-12T21:06:44.799Z,48.83
2023-02-12T21:09:13.444Z,45.58
2023-02-12T21:11:42.248Z,46.38
2023-02-12T21:14:23.669Z,49.65
2023-02-12T21:16:52.205Z,51.80
2023-02-12T21:19:19.265Z,45.50
2023-02-12T21:21:46.303Z,48.00
2023-02-12T21:24:16.317Z,55.08
2023-02-12T21:26:43.207Z,52.63
2023-02-12T21:29:10.103Z,44.88
2023-02-12T21:31:41.648Z,49.65
2023-02-12T21:34:12.630Z,52.13
2023-02-12T21:36:46.149Z,45.65
2023-02-12T21:39:24.895Z,49.97
2023-02-12T21:41:55.064Z,47.05
2023-02-12T21:44:28.073Z,44.40
2023-02-12T21:46:55.626Z,46.03
2023-02-12T21:49:27.305Z,48.45
2023-02-12T21:51:58.154Z,46.47
2023-02-12T21:54:25.398Z,44.80
2023-02-12T21:56:52.242Z,45.25
2023-02-12T21:59:19.382Z,41.90
2023-02-12T22:01:51.179Z,47.30
2023-02-12T22:04:22.550Z,43.10
2023-02-12T22:06:51.274Z,43.72
2023-02-12T22:09:19.979Z,42.28
2023-02-12T22:11:46.961Z,44.45
2023-02-12T22:14:16.279Z,40.85
2023-02-12T22:16:43.260Z,46.40
2023-02-12T22:19:10.081Z,39.53
2023-02-12T22:21:40.458Z,46.80
2023-02-12T22:24:09.191Z,41.33
2023-02-12T22:26:36.247Z,44.58
2023-02-12T22:29:05.871Z,41.97
2023-02-12T22:31:35.088Z,43.47
2023-02-12T22:34:05.680Z,37.90
2023-02-12T22:36:35.790Z,40.28
2023-02-12T22:39:03.643Z,43.25
2023-02-12T22:41:30.825Z,39.72
2023-02-12T22:44:01.552Z,40.70
2023-02-12T22:46:30.835Z,37.80
2023-02-12T22:48:59.999Z,38.53
2023-02-12T22:51:31.058Z,38.60
2023-02-12T22:53:58.186Z,38.67
2023-02-12T22:56:25.242Z,40.22
2023-02-12T22:59:01.081Z,38.78
2023-02-12T23:01:28.913Z,38.50
2023-02-12T23:03:56.357Z,37.83
2023-02-12T23:06:26.725Z,39.35
2023-02-12T23:08:56.213Z,36.47
2023-02-12T23:11:24.381Z,42.92
2023-02-12T23:13:52.080Z,36.88
2023-02-12T23:16:18.870Z,38.80
2023-02-12T23:18:47.925Z,37.10
2023-02-12T23:21:17.177Z,42.78
2023-02-12T23:23:47.574Z,41.80
2023-02-12T23:26:14.300Z,39.28
2023-02-12T23:28:41.261Z,40.63
2023-02-12T23:31:08.048Z,43.78
2023-02-12T23:33:34.736Z,46.97
2023-02-12T23:36:01.390Z,40.67
2023-02-12T23:38:28.043Z,42.42
2023-02-12T23:40:54.746Z,38.80
2023-02-12T23:43:21.384Z,38.30
2023-02-12T23:45:50.246Z,40.85
2023-02-12T23:48:16.975Z,39.90
2023-02-12T23:50:47.708Z,41.13
2023-02-12T23:53:18.854Z,44.92
2023-02-12T23:55:48.832Z,43.33
2023-02-12T23:58:15.464Z,46.47
